sensor_id;sensor_type;location;lat;lon;timestamp;P1;durP1;ratioP1;P2;durP2;ratioP2
2884;SDS011;54691;48.262;11.586;2023-07-13T00:00:46;12.90;;;3.60;;
2884;SDS011;54691;48.262;11.586;2023-07-13T00:07:57;9.60;;;3.10;;
2884;SDS011;54691;48.262;11.586;2023-07-13T00:11:37;5.73;;;2.57;;
2884;SDS011;54691;48.262;11.586;2023-07-13T00:29:41;11.43;;;2.92;;
2884;SDS011;54691;48.262;11.586;2023-07-13T00:33:24;6.30;;;2.98;;
2884;SDS011;54691;48.262;11.586;2023-07-13T00:40:41;12.85;;;3.58;;
2884;SDS011;54691;48.262;11.586;2023-07-13T00:44:36;10.03;;;2.52;;
2884;SDS011;54691;48.262;11.586;2023-07-13T00:48:24;7.37;;;3.02;;
2884;SDS011;54691;48.262;11.586;2023-07-13T00:52:05;10.90;;;2.95;;
2884;SDS011;54691;48.262;11.586;2023-07-13T00:55:42;7.40;;;3.60;;
2884;SDS011;54691;48.262;11.586;2023-07-13T00:59:16;7.00;;;3.30;;
2884;SDS011;54691;48.262;11.586;2023-07-13T01:03:09;6.77;;;3.00;;
2884;SDS011;54691;48.262;11.586;2023-07-13T01:13:44;9.20;;;3.20;;
2884;SDS011;54691;48.262;11.586;2023-07-13T01:27:50;7.28;;;3.58;;
2884;SDS011;54691;48.262;11.586;2023-07-13T01:34:51;18.15;;;4.70;;
2884;SDS011;54691;48.262;11.586;2023-07-13T01:38:48;9.15;;;3.17;;
2884;SDS011;54691;48.262;11.586;2023-07-13T01:42:36;77.75;;;5.47;;
2884;SDS011;54691;48.262;11.586;2023-07-13T01:46:33;32.45;;;3.85;;
2884;SDS011;54691;48.262;11.586;2023-07-13T02:02:36;0.00;;;0.00;;
2884;SDS011;54691;48.262;11.586;2023-07-13T02:06:26;0.10;;;0.10;;
2884;SDS011;54691;48.262;11.586;2023-07-13T02:24:07;0.00;;;0.00;;
2884;SDS011;54691;48.262;11.586;2023-07-13T02:31:06;0.10;;;0.10;;
2884;SDS011;54691;48.262;11.586;2023-07-13T02:38:32;0.10;;;0.10;;
2884;SDS011;54691;48.262;11.586;2023-07-13T02:42:13;0.00;;;0.00;;
2884;SDS011;54691;48.262;11.586;2023-07-13T02:50:30;0.00;;;0.00;;
2884;SDS011;54691;48.262;11.586;2023-07-13T02:58:18;0.30;;;0.30;;
2884;SDS011;54691;48.262;11.586;2023-07-13T03:05:57;0.05;;;0.05;;
2884;SDS011;54691;48.262;11.586;2023-07-13T03:16:55;0.00;;;0.00;;
2884;SDS011;54691;48.262;11.586;2023-07-13T03:20:49;0.10;;;0.10;;
2884;SDS011;54691;48.262;11.586;2023-07-13T03:32:03;0.00;;;0.00;;
2884;SDS011;54691;48.262;11.586;2023-07-13T03:43:24;0.10;;;0.10;;
2884;SDS011;54691;48.262;11.586;2023-07-13T03:47:04;0.00;;;0.00;;
2884;SDS011;54691;48.262;11.586;2023-07-13T03:54:34;0.00;;;0.00;;
2884;SDS011;54691;48.262;11.586;2023-07-13T03:58:32;0.00;;;0.00;;
2884;SDS011;54691;48.262;11.586;2023-07-13T04:05:51;0.15;;;0.15;;
2884;SDS011;54691;48.262;11.586;2023-07-13T04:13:18;0.00;;;0.00;;
2884;SDS011;54691;48.262;11.586;2023-07-13T04:17:02;0.35;;;0.35;;
2884;SDS011;54691;48.262;11.586;2023-07-13T04:20:46;0.10;;;0.10;;
2884;SDS011;54691;48.262;11.586;2023-07-13T04:24:29;0.00;;;0.00;;
2884;SDS011;54691;48.262;11.586;2023-07-13T04:28:12;0.00;;;0.00;;
2884;SDS011;54691;48.262;11.586;2023-07-13T04:31:55;0.10;;;0.10;;
2884;SDS011;54691;48.262;11.586;2023-07-13T04:35:26;0.10;;;0.10;;
2884;SDS011;54691;48.262;11.586;2023-07-13T04:43:12;0.10;;;0.10;;
2884;SDS011;54691;48.262;11.586;2023-07-13T04:46:54;0.37;;;0.20;;
2884;SDS011;54691;48.262;11.586;2023-07-13T04:54:20;0.08;;;0.08;;
2884;SDS011;54691;48.262;11.586;2023-07-13T04:58:10;0.00;;;0.00;;
2884;SDS011;54691;48.262;11.586;2023-07-13T05:05:20;0.10;;;0.10;;
2884;SDS011;54691;48.262;11.586;2023-07-13T05:12:33;0.10;;;0.10;;
2884;SDS011;54691;48.262;11.586;2023-07-13T05:16:19;0.00;;;0.00;;
2884;SDS011;54691;48.262;11.586;2023-07-13T05:27:01;0.10;;;0.10;;
2884;SDS011;54691;48.262;11.586;2023-07-13T05:30:34;0.10;;;0.10;;
2884;SDS011;54691;48.262;11.586;2023-07-13T05:34:11;0.00;;;0.00;;
2884;SDS011;54691;48.262;11.586;2023-07-13T05:37:50;0.00;;;0.00;;
2884;SDS011;54691;48.262;11.586;2023-07-13T05:41:41;0.00;;;0.00;;
2884;SDS011;54691;48.262;11.586;2023-07-13T05:52:17;0.10;;;0.10;;
2884;SDS011;54691;48.262;11.586;2023-07-13T05:55:54;0.10;;;0.10;;
2884;SDS011;54691;48.262;11.586;2023-07-13T06:03:11;0.10;;;0.10;;
2884;SDS011;54691;48.262;11.586;2023-07-13T06:06:48;0.00;;;0.00;;
2884;SDS011;54691;48.262;11.586;2023-07-13T06:10:25;0.10;;;0.10;;
2884;SDS011;54691;48.262;11.586;2023-07-13T06:21:20;0.10;;;0.10;;
2884;SDS011;54691;48.262;11.586;2023-07-13T06:24:58;0.10;;;0.10;;
2884;SDS011;54691;48.262;11.586;2023-07-13T06:32:12;0.10;;;0.10;;
2884;SDS011;54691;48.262;11.586;2023-07-13T06:42:47;0.37;;;0.30;;
2884;SDS011;54691;48.262;11.586;2023-07-13T06:49:51;0.10;;;0.10;;
2884;SDS011;54691;48.262;11.586;2023-07-13T06:56:49;0.28;;;0.28;;
2884;SDS011;54691;48.262;11.586;2023-07-13T07:07:26;0.00;;;0.00;;
2884;SDS011;54691;48.262;11.586;2023-07-13T07:17:57;0.10;;;0.10;;
2884;SDS011;54691;48.262;11.586;2023-07-13T07:24:55;0.10;;;0.10;;
2884;SDS011;54691;48.262;11.586;2023-07-13T07:31:55;0.10;;;0.10;;
2884;SDS011;54691;48.262;11.586;2023-07-13T07:38:57;0.10;;;0.10;;
2884;SDS011;54691;48.262;11.586;2023-07-13T07:45:57;0.10;;;0.10;;
2884;SDS011;54691;48.262;11.586;2023-07-13T07:56:29;0.00;;;0.00;;
2884;SDS011;54691;48.262;11.586;2023-07-13T08:03:27;0.20;;;0.20;;
2884;SDS011;54691;48.262;11.586;2023-07-13T08:10:26;0.00;;;0.00;;
2884;SDS011;54691;48.262;11.586;2023-07-13T08:17:26;0.10;;;0.10;;
2884;SDS011;54691;48.262;11.586;2023-07-13T08:24:44;0.10;;;0.10;;
2884;SDS011;54691;48.262;11.586;2023-07-13T08:28:04;0.10;;;0.10;;
2884;SDS011;54691;48.262;11.586;2023-07-13T08:32:03;0.10;;;0.10;;
2884;SDS011;54691;48.262;11.586;2023-07-13T08:38:56;0.10;;;0.10;;
2884;SDS011;54691;48.262;11.586;2023-07-13T08:46:13;0.10;;;0.10;;
2884;SDS011;54691;48.262;11.586;2023-07-13T08:49:44;0.10;;;0.10;;
2884;SDS011;54691;48.262;11.586;2023-07-13T08:56:47;0.10;;;0.10;;
2884;SDS011;54691;48.262;11.586;2023-07-13T09:03:55;0.10;;;0.10;;
2884;SDS011;54691;48.262;11.586;2023-07-13T09:07:25;0.10;;;0.10;;
2884;SDS011;54691;48.262;11.586;2023-07-13T09:18:04;0.10;;;0.10;;
2884;SDS011;54691;48.262;11.586;2023-07-13T09:28:45;0.10;;;0.10;;
2884;SDS011;54691;48.262;11.586;2023-07-13T09:35:42;0.10;;;0.10;;
2884;SDS011;54691;48.262;11.586;2023-07-13T09:42:40;0.10;;;0.10;;
2884;SDS011;54691;48.262;11.586;2023-07-13T09:49:38;0.10;;;0.10;;
2884;SDS011;54691;48.262;11.586;2023-07-13T09:56:35;1.55;;;1.45;;
2884;SDS011;54691;48.262;11.586;2023-07-13T10:03:34;0.10;;;0.10;;
2884;SDS011;54691;48.262;11.586;2023-07-13T10:10:35;0.10;;;0.10;;
2884;SDS011;54691;48.262;11.586;2023-07-13T10:17:33;0.10;;;0.10;;
2884;SDS011;54691;48.262;11.586;2023-07-13T10:24:31;0.10;;;0.10;;
2884;SDS011;54691;48.262;11.586;2023-07-13T10:31:29;0.10;;;0.10;;
2884;SDS011;54691;48.262;11.586;2023-07-13T10:38:28;0.10;;;0.10;;
2884;SDS011;54691;48.262;11.586;2023-07-13T10:45:29;0.10;;;0.10;;
2884;SDS011;54691;48.262;11.586;2023-07-13T10:52:46;0.10;;;0.10;;
2884;SDS011;54691;48.262;11.586;2023-07-13T10:56:22;0.10;;;0.10;;
2884;SDS011;54691;48.262;11.586;2023-07-13T11:03:18;0.10;;;0.10;;
2884;SDS011;54691;48.262;11.586;2023-07-13T11:10:48;0.10;;;0.10;;
2884;SDS011;54691;48.262;11.586;2023-07-13T11:21:13;0.10;;;0.10;;
2884;SDS011;54691;48.262;11.586;2023-07-13T11:24:49;0.10;;;0.10;;
2884;SDS011;54691;48.262;11.586;2023-07-13T11:28:21;0.10;;;0.10;;
2884;SDS011;54691;48.262;11.586;2023-07-13T11:35:27;0.10;;;0.10;;
2884;SDS011;54691;48.262;11.586;2023-07-13T11:59:03;0.10;;;0.10;;
2884;SDS011;54691;48.262;11.586;2023-07-13T12:03:30;0.10;;;0.10;;
2884;SDS011;54691;48.262;11.586;2023-07-13T13:27:55;0.10;;;0.10;;
2884;SDS011;54691;48.262;11.586;2023-07-13T13:59:40;0.10;;;0.10;;
2884;SDS011;54691;48.262;11.586;2023-07-13T15:01:17;0.20;;;0.20;;
2884;SDS011;54691;48.262;11.586;2023-07-13T15:11:49;0.20;;;0.20;;
2884;SDS011;54691;48.262;11.586;2023-07-13T15:18:51;0.10;;;0.10;;
2884;SDS011;54691;48.262;11.586;2023-07-13T15:25:48;0.20;;;0.20;;
2884;SDS011;54691;48.262;11.586;2023-07-13T15:36:26;0.20;;;0.20;;
2884;SDS011;54691;48.262;11.586;2023-07-13T15:40:02;0.20;;;0.20;;
2884;SDS011;54691;48.262;11.586;2023-07-13T15:47:03;0.20;;;0.20;;
2884;SDS011;54691;48.262;11.586;2023-07-13T15:57:35;0.30;;;0.30;;
2884;SDS011;54691;48.262;11.586;2023-07-13T16:08:27;0.20;;;0.20;;
2884;SDS011;54691;48.262;11.586;2023-07-13T16:18:58;0.30;;;0.30;;
2884;SDS011;54691;48.262;11.586;2023-07-13T16:29:33;0.30;;;0.30;;
2884;SDS011;54691;48.262;11.586;2023-07-13T16:36:33;0.30;;;0.30;;
2884;SDS011;54691;48.262;11.586;2023-07-13T16:43:37;0.30;;;0.30;;
2884;SDS011;54691;48.262;11.586;2023-07-13T16:47:20;0.30;;;0.30;;
2884;SDS011;54691;48.262;11.586;2023-07-13T17:05:03;2.00;;;1.30;;
2884;SDS011;54691;48.262;11.586;2023-07-13T17:12:01;3.27;;;1.30;;
2884;SDS011;54691;48.262;11.586;2023-07-13T17:19:01;2.22;;;1.30;;
2884;SDS011;54691;48.262;11.586;2023-07-13T17:29:59;5.05;;;1.52;;
2884;SDS011;54691;48.262;11.586;2023-07-13T17:33:37;3.25;;;1.45;;
2884;SDS011;54691;48.262;11.586;2023-07-13T17:37:12;3.90;;;1.40;;
2884;SDS011;54691;48.262;11.586;2023-07-13T17:44:12;3.12;;;1.40;;
2884;SDS011;54691;48.262;11.586;2023-07-13T17:51:15;3.30;;;1.50;;
2884;SDS011;54691;48.262;11.586;2023-07-13T18:05:23;1.60;;;1.17;;
2884;SDS011;54691;48.262;11.586;2023-07-13T18:12:21;6.50;;;1.42;;
2884;SDS011;54691;48.262;11.586;2023-07-13T18:19:30;4.25;;;1.42;;
2884;SDS011;54691;48.262;11.586;2023-07-13T18:23:14;3.08;;;1.35;;
2884;SDS011;54691;48.262;11.586;2023-07-13T18:26:45;5.08;;;1.25;;
2884;SDS011;54691;48.262;11.586;2023-07-13T18:33:56;6.37;;;1.65;;
2884;SDS011;54691;48.262;11.586;2023-07-13T19:18:28;5.40;;;1.57;;
2884;SDS011;54691;48.262;11.586;2023-07-13T19:35:11;6.58;;;1.30;;
2884;SDS011;54691;48.262;11.586;2023-07-13T19:42:40;4.00;;;1.17;;
2884;SDS011;54691;48.262;11.586;2023-07-13T19:53:19;5.67;;;1.85;;
2884;SDS011;54691;48.262;11.586;2023-07-13T20:00:17;3.95;;;1.30;;
2884;SDS011;54691;48.262;11.586;2023-07-13T20:07:17;6.10;;;1.47;;
2884;SDS011;54691;48.262;11.586;2023-07-13T20:14:24;6.62;;;1.45;;
2884;SDS011;54691;48.262;11.586;2023-07-13T20:21:37;6.60;;;1.50;;
2884;SDS011;54691;48.262;11.586;2023-07-13T20:25:16;3.25;;;1.40;;
2884;SDS011;54691;48.262;11.586;2023-07-13T20:32:27;5.80;;;1.30;;
2884;SDS011;54691;48.262;11.586;2023-07-13T20:46:49;4.90;;;1.75;;
2884;SDS011;54691;48.262;11.586;2023-07-13T20:53:51;6.58;;;2.27;;
2884;SDS011;54691;48.262;11.586;2023-07-13T21:08:01;5.58;;;1.82;;
2884;SDS011;54691;48.262;11.586;2023-07-13T21:15:01;7.83;;;1.87;;
2884;SDS011;54691;48.262;11.586;2023-07-13T21:25:34;8.45;;;1.90;;
2884;SDS011;54691;48.262;11.586;2023-07-13T21:32:32;4.37;;;1.77;;
2884;SDS011;54691;48.262;11.586;2023-07-13T21:39:38;6.72;;;3.05;;
2884;SDS011;54691;48.262;11.586;2023-07-13T21:46:34;4.12;;;2.20;;
2884;SDS011;54691;48.262;11.586;2023-07-13T21:53:33;6.45;;;1.62;;
2884;SDS011;54691;48.262;11.586;2023-07-13T22:00:30;3.27;;;1.75;;
2884;SDS011;54691;48.262;11.586;2023-07-13T22:07:33;2.90;;;2.08;;
2884;SDS011;54691;48.262;11.586;2023-07-13T22:11:14;3.15;;;1.60;;
2884;SDS011;54691;48.262;11.586;2023-07-13T22:14:44;2.45;;;1.75;;
2884;SDS011;54691;48.262;11.586;2023-07-13T22:21:45;3.77;;;1.80;;
2884;SDS011;54691;48.262;11.586;2023-07-13T22:32:16;2.52;;;1.50;;
2884;SDS011;54691;48.262;11.586;2023-07-13T22:39:31;3.25;;;1.60;;
2884;SDS011;54691;48.262;11.586;2023-07-13T22:46:51;5.05;;;1.85;;
2884;SDS011;54691;48.262;11.586;2023-07-13T22:57:25;2.65;;;1.65;;
2884;SDS011;54691;48.262;11.586;2023-07-13T23:04:33;7.75;;;2.12;;
2884;SDS011;54691;48.262;11.586;2023-07-13T23:08:02;7.00;;;2.00;;
2884;SDS011;54691;48.262;11.586;2023-07-13T23:14:59;3.98;;;1.65;;
2884;SDS011;54691;48.262;11.586;2023-07-13T23:25:33;3.95;;;1.65;;
2884;SDS011;54691;48.262;11.586;2023-07-13T23:32:32;4.25;;;2.22;;
2884;SDS011;54691;48.262;11.586;2023-07-13T23:46:50;4.57;;;1.70;;
